Time;durP1;ratioP1;P1;durP2;ratioP2;P2;SDS_P1;SDS_P2;PMS_P1;PMS_P2;Temp;Humidity;BMP_temperature;BMP_pressure;BME280_temperature;BME280_humidity;BME280_pressure;Samples;Min_cycle;Max_cycle;Signal;HPM_P1;HPM_P2
2023/01/27 00:00:41;;;;;;;12.25;6.32;;;;;;;;;;5100770;28;20496;-81
2023/01/27 00:03:10;;;;;;;11.93;6.50;;;;;;;;;;5074366;28;20056;-80
2023/01/27 00:05:36;;;;;;;14.52;6.00;;;;;;;;;;5098073;28;20035;-80
2023/01/27 00:08:02;;;;;;;13.25;6.03;;;;;;;;;;5089985;28;20032;-80
2023/01/27 00:10:28;;;;;;;14.07;6.25;;;;;;;;;;5092803;28;20392;-81
2023/01/27 00:15:39;;;;;;;13.38;5.90;;;;;;;;;;5092816;28;20109;-81
2023/01/27 00:18:05;;;;;;;15.07;7.13;;;;;;;;;;5091066;28;20106;-80
2023/01/27 00:26:05;;;;;;;13.60;6.70;;;;;;;;;;5083133;28;20046;-81
2023/01/27 00:28:39;;;;;;;16.58;6.18;;;;;;;;;;5096911;28;20377;-81
2023/01/27 00:31:06;;;;;;;19.15;8.23;;;;;;;;;;5095993;28;20622;-80
2023/01/27 00:33:32;;;;;;;9.93;6.85;;;;;;;;;;5071011;28;20044;-81
2023/01/27 00:36:06;;;;;;;13.27;6.38;;;;;;;;;;5089091;28;20428;-81
2023/01/27 00:38:33;;;;;;;16.10;7.55;;;;;;;;;;5093549;28;20047;-81
2023/01/27 00:41:14;;;;;;;17.45;7.25;;;;;;;;;;5096155;28;20597;-81
2023/01/27 00:43:40;;;;;;;12.00;6.55;;;;;;;;;;5088981;28;20102;-81
2023/01/27 00:46:07;;;;;;;11.23;6.30;;;;;;;;;;5098137;28;20032;-80
2023/01/27 00:48:33;;;;;;;12.63;7.85;;;;;;;;;;5091067;28;20037;-81
2023/01/27 00:50:59;;;;;;;13.38;7.18;;;;;;;;;;5094175;28;20381;-80
2023/01/27 00:53:25;;;;;;;10.57;7.65;;;;;;;;;;5095459;28;20288;-80
2023/01/27 00:55:51;;;;;;;12.80;7.45;;;;;;;;;;5091359;28;20111;-81
2023/01/27 00:58:17;;;;;;;10.65;6.65;;;;;;;;;;5089055;28;20558;-80
2023/01/27 01:00:44;;;;;;;11.18;7.05;;;;;;;;;;5095226;28;20028;-81
2023/01/27 01:03:10;;;;;;;11.43;7.00;;;;;;;;;;5094842;28;20051;-80
2023/01/27 01:05:36;;;;;;;14.57;7.28;;;;;;;;;;5082296;28;20044;-79
2023/01/27 01:08:02;;;;;;;11.95;6.60;;;;;;;;;;5086235;28;20031;-80
2023/01/27 01:10:28;;;;;;;10.23;6.57;;;;;;;;;;5092126;28;20387;-81
2023/01/27 01:12:54;;;;;;;15.63;8.07;;;;;;;;;;5079295;28;20651;-81
2023/01/27 01:15:20;;;;;;;11.13;5.95;;;;;;;;;;5086305;28;20039;-82
2023/01/27 01:17:46;;;;;;;10.77;6.57;;;;;;;;;;5101362;28;20023;-82
2023/01/27 01:20:12;;;;;;;11.50;5.70;;;;;;;;;;5092508;28;20042;-81
2023/01/27 01:22:38;;;;;;;8.60;5.85;;;;;;;;;;5085632;28;20027;-82
2023/01/27 01:25:04;;;;;;;11.90;5.88;;;;;;;;;;5092174;28;20438;-82
2023/01/27 01:27:30;;;;;;;8.02;4.97;;;;;;;;;;5093708;28;20051;-82
2023/01/27 01:29:56;;;;;;;7.57;5.03;;;;;;;;;;5092988;28;20046;-81
2023/01/27 01:32:22;;;;;;;8.68;4.85;;;;;;;;;;5094911;28;20070;-82
2023/01/27 01:34:48;;;;;;;13.85;7.50;;;;;;;;;;5080312;28;20131;-82
2023/01/27 01:37:14;;;;;;;8.70;5.05;;;;;;;;;;5098597;28;20027;-82
2023/01/27 01:39:40;;;;;;;6.00;4.38;;;;;;;;;;5092332;28;20061;-82
2023/01/27 01:42:06;;;;;;;15.38;5.07;;;;;;;;;;5092994;28;20027;-81
2023/01/27 01:44:32;;;;;;;8.95;4.65;;;;;;;;;;5094740;28;20063;-82
2023/01/27 01:46:58;;;;;;;7.55;5.10;;;;;;;;;;5101111;28;20039;-81
2023/01/27 01:49:29;;;;;;;9.60;5.50;;;;;;;;;;5100304;28;20428;-82
2023/01/27 01:52:06;;;;;;;9.85;4.53;;;;;;;;;;5098728;28;20035;-81
2023/01/27 01:54:34;;;;;;;5.80;4.28;;;;;;;;;;5096338;28;20032;-81
2023/01/27 01:57:04;;;;;;;7.10;4.30;;;;;;;;;;5100876;28;20023;-80
2023/01/27 01:59:33;;;;;;;7.60;4.53;;;;;;;;;;5094284;28;20032;-81
2023/01/27 02:02:02;;;;;;;11.38;5.35;;;;;;;;;;5094885;28;20020;-81
2023/01/27 02:04:32;;;;;;;7.00;4.15;;;;;;;;;;5100969;28;20437;-81
2023/01/27 02:07:10;;;;;;;11.43;4.88;;;;;;;;;;5101318;28;20027;-79
2023/01/27 02:09:36;;;;;;;8.07;5.07;;;;;;;;;;5089562;28;20044;-80
2023/01/27 02:12:03;;;;;;;9.43;4.53;;;;;;;;;;5097141;28;20068;-79
2023/01/27 02:14:29;;;;;;;9.00;4.22;;;;;;;;;;5078661;28;20380;-81
2023/01/27 02:16:55;;;;;;;6.47;4.00;;;;;;;;;;5091734;28;20046;-81
2023/01/27 02:19:24;;;;;;;11.10;3.75;;;;;;;;;;5096714;28;20477;-80
2023/01/27 02:21:52;;;;;;;8.70;4.47;;;;;;;;;;5098990;28;20032;-81
2023/01/27 02:24:18;;;;;;;9.15;3.67;;;;;;;;;;5090630;28;20472;-81
2023/01/27 02:26:45;;;;;;;8.95;3.60;;;;;;;;;;5098572;28;20032;-81
2023/01/27 02:29:13;;;;;;;7.05;4.00;;;;;;;;;;5096899;28;20039;-82
2023/01/27 02:31:39;;;;;;;7.45;3.80;;;;;;;;;;5082885;28;20028;-83
2023/01/27 02:34:13;;;;;;;9.27;4.18;;;;;;;;;;5089003;28;20105;-82
2023/01/27 02:36:43;;;;;;;8.35;4.10;;;;;;;;;;5093463;28;20024;-82
2023/01/27 02:39:10;;;;;;;12.60;4.45;;;;;;;;;;5095783;28;20080;-81
2023/01/27 02:41:39;;;;;;;10.32;3.92;;;;;;;;;;5090307;28;20092;-82
2023/01/27 02:44:05;;;;;;;6.43;4.03;;;;;;;;;;5097910;28;20050;-81
2023/01/27 02:46:32;;;;;;;6.15;3.17;;;;;;;;;;5079952;28;20836;-82
2023/01/27 02:48:58;;;;;;;6.22;3.58;;;;;;;;;;5100276;28;20028;-81
2023/01/27 02:51:24;;;;;;;4.30;2.47;;;;;;;;;;5090272;28;20036;-81
2023/01/27 02:53:50;;;;;;;10.40;2.78;;;;;;;;;;5093897;28;20476;-81
2023/01/27 02:56:16;;;;;;;8.13;1.98;;;;;;;;;;5101661;28;20169;-82
2023/01/27 02:58:42;;;;;;;56.63;27.98;;;;;;;;;;5086357;28;20032;-76
2023/01/27 03:01:08;;;;;;;11.75;5.10;;;;;;;;;;5099163;28;20035;-79
2023/01/27 03:03:35;;;;;;;13.98;5.50;;;;;;;;;;5094302;28;20063;-81
2023/01/27 03:06:01;;;;;;;5.85;3.10;;;;;;;;;;5102725;28;20092;-80
2023/01/27 03:08:27;;;;;;;8.35;3.05;;;;;;;;;;5097286;28;20059;-81
2023/01/27 03:10:54;;;;;;;8.82;2.88;;;;;;;;;;5095076;28;20039;-80
2023/01/27 03:13:21;;;;;;;7.05;2.38;;;;;;;;;;5092666;28;20024;-82
2023/01/27 03:18:31;;;;;;;10.00;2.60;;;;;;;;;;5097031;28;20431;-82
2023/01/27 03:21:02;;;;;;;6.85;3.15;;;;;;;;;;5069853;28;20031;-81
2023/01/27 03:23:28;;;;;;;7.13;2.00;;;;;;;;;;5085606;28;20448;-82
2023/01/27 03:25:54;;;;;;;6.78;2.22;;;;;;;;;;5093267;28;20039;-82
2023/01/27 03:28:20;;;;;;;5.22;1.70;;;;;;;;;;5083796;28;20042;-82
2023/01/27 03:30:46;;;;;;;7.70;1.80;;;;;;;;;;5086495;28;20400;-82
2023/01/27 03:33:12;;;;;;;3.83;1.70;;;;;;;;;;5101029;28;20035;-82
2023/01/27 03:35:46;;;;;;;6.03;2.13;;;;;;;;;;5091270;28;20062;-82
2023/01/27 03:46:27;;;;;;;3.88;1.17;;;;;;;;;;5082254;28;20034;-82
2023/01/27 03:48:54;;;;;;;4.78;1.35;;;;;;;;;;5093285;28;20024;-82
2023/01/27 03:51:21;;;;;;;3.58;1.50;;;;;;;;;;5088166;28;20608;-82
2023/01/27 03:53:47;;;;;;;5.28;1.10;;;;;;;;;;5093220;28;20035;-82
2023/01/27 03:56:14;;;;;;;3.72;0.82;;;;;;;;;;5092522;28;20024;-82
2023/01/27 03:58:40;;;;;;;2.97;0.90;;;;;;;;;;5102463;28;20396;-82
2023/01/27 04:01:07;;;;;;;1.52;0.88;;;;;;;;;;5095855;28;20115;-83
2023/01/27 04:09:07;;;;;;;3.92;0.93;;;;;;;;;;5101244;28;20458;-81
2023/01/27 04:14:18;;;;;;;2.22;1.15;;;;;;;;;;5097730;28;20046;-83
2023/01/27 04:16:44;;;;;;;3.03;0.85;;;;;;;;;;5092117;28;20388;-83
2023/01/27 04:19:11;;;;;;;2.72;1.23;;;;;;;;;;5090862;28;20036;-82
2023/01/27 04:21:37;;;;;;;4.88;1.20;;;;;;;;;;5092061;28;20031;-83
2023/01/27 04:24:04;;;;;;;4.65;1.27;;;;;;;;;;5094915;28;20071;-82
2023/01/27 04:26:33;;;;;;;6.93;1.00;;;;;;;;;;5092946;28;20028;-83
2023/01/27 04:29:03;;;;;;;6.72;1.35;;;;;;;;;;5096284;28;20031;-82
2023/01/27 04:31:29;;;;;;;6.10;2.25;;;;;;;;;;5093927;28;20349;-83
2023/01/27 04:33:55;;;;;;;5.43;1.45;;;;;;;;;;5092456;28;20049;-83
2023/01/27 04:36:21;;;;;;;6.65;1.25;;;;;;;;;;5097998;28;20032;-83
2023/01/27 04:38:47;;;;;;;5.30;1.08;;;;;;;;;;5095257;28;20038;-82
2023/01/27 04:41:13;;;;;;;4.53;1.10;;;;;;;;;;5099705;28;20059;-82
2023/01/27 04:43:39;;;;;;;2.33;0.80;;;;;;;;;;5094861;28;20020;-83
2023/01/27 04:46:05;;;;;;;7.90;1.30;;;;;;;;;;5097433;28;20388;-82
2023/01/27 04:48:31;;;;;;;2.95;0.80;;;;;;;;;;5093903;28;20031;-83
2023/01/27 04:50:57;;;;;;;5.95;1.65;;;;;;;;;;5097883;28;20063;-82
2023/01/27 04:53:23;;;;;;;3.78;1.20;;;;;;;;;;5092595;28;20078;-82
2023/01/27 04:55:49;;;;;;;3.15;0.98;;;;;;;;;;5094996;28;20052;-82
2023/01/27 04:58:19;;;;;;;1.70;1.25;;;;;;;;;;5092643;28;20032;-82
2023/01/27 05:00:45;;;;;;;2.17;0.70;;;;;;;;;;5098906;28;20051;-83
2023/01/27 05:03:11;;;;;;;8.23;1.10;;;;;;;;;;5091278;28;20078;-82
2023/01/27 05:05:38;;;;;;;3.20;0.80;;;;;;;;;;5095211;28;20391;-82
2023/01/27 05:08:04;;;;;;;3.42;0.70;;;;;;;;;;5089437;28;20024;-81
2023/01/27 05:10:30;;;;;;;3.65;0.75;;;;;;;;;;5092302;28;20034;-82
2023/01/27 05:12:56;;;;;;;4.22;0.88;;;;;;;;;;5098232;28;20062;-82
2023/01/27 05:15:22;;;;;;;3.15;0.82;;;;;;;;;;5090834;28;20424;-83
2023/01/27 05:17:48;;;;;;;3.70;0.98;;;;;;;;;;5095526;28;20409;-83
2023/01/27 05:20:15;;;;;;;6.97;1.10;;;;;;;;;;5089872;28;20546;-82
2023/01/27 05:22:41;;;;;;;5.60;1.25;;;;;;;;;;5083769;28;20419;-83
2023/01/27 05:25:07;;;;;;;3.13;0.95;;;;;;;;;;5088701;28;20024;-83
2023/01/27 05:27:34;;;;;;;4.45;1.67;;;;;;;;;;5096193;28;20032;-83
2023/01/27 05:30:00;;;;;;;3.42;1.08;;;;;;;;;;5083756;28;20028;-83
2023/01/27 05:32:26;;;;;;;7.88;1.45;;;;;;;;;;5082768;28;20537;-83
2023/01/27 05:34:52;;;;;;;2.63;0.80;;;;;;;;;;5091273;28;20110;-83
2023/01/27 05:37:18;;;;;;;5.30;1.52;;;;;;;;;;5090716;28;20033;-83
2023/01/27 05:39:44;;;;;;;3.05;1.30;;;;;;;;;;5094133;28;20043;-84
2023/01/27 05:42:10;;;;;;;5.07;1.65;;;;;;;;;;5094388;28;20039;-83
2023/01/27 05:44:36;;;;;;;3.13;1.15;;;;;;;;;;5075186;28;20389;-83
2023/01/27 05:47:02;;;;;;;2.28;1.00;;;;;;;;;;5084066;28;20040;-81
2023/01/27 05:49:28;;;;;;;3.25;0.80;;;;;;;;;;5095782;28;20024;-83
2023/01/27 05:51:54;;;;;;;3.40;1.27;;;;;;;;;;5099385;28;20039;-83
2023/01/27 05:54:20;;;;;;;5.82;1.08;;;;;;;;;;5099886;28;20076;-83
2023/01/27 05:56:46;;;;;;;3.58;1.45;;;;;;;;;;5094379;28;20502;-83
2023/01/27 05:59:12;;;;;;;11.20;2.33;;;;;;;;;;5093690;28;20512;-83
2023/01/27 06:01:38;;;;;;;4.78;1.48;;;;;;;;;;5087695;28;21179;-83
2023/01/27 06:04:05;;;;;;;5.30;0.90;;;;;;;;;;5084819;28;20079;-81
2023/01/27 06:06:32;;;;;;;5.30;1.20;;;;;;;;;;5089429;28;20039;-83
2023/01/27 06:08:58;;;;;;;7.75;1.15;;;;;;;;;;5096427;28;20039;-82
2023/01/27 06:11:24;;;;;;;5.20;1.52;;;;;;;;;;5093400;28;20053;-82
2023/01/27 06:13:51;;;;;;;3.38;0.90;;;;;;;;;;5086037;28;20034;-83
2023/01/27 06:16:18;;;;;;;3.40;1.50;;;;;;;;;;5093906;28;20019;-83
2023/01/27 06:18:45;;;;;;;6.65;1.20;;;;;;;;;;5101111;28;20161;-83
2023/01/27 06:21:11;;;;;;;6.43;0.90;;;;;;;;;;5098304;28;20379;-83
2023/01/27 06:23:38;;;;;;;5.57;1.45;;;;;;;;;;5087411;28;20035;-83
2023/01/27 06:26:09;;;;;;;3.00;1.05;;;;;;;;;;5102470;28;20062;-83
2023/01/27 06:28:36;;;;;;;5.95;1.40;;;;;;;;;;5094643;28;20103;-83
2023/01/27 06:31:10;;;;;;;3.28;1.10;;;;;;;;;;5099114;28;20427;-82
2023/01/27 06:33:36;;;;;;;4.38;1.25;;;;;;;;;;5090820;28;20028;-84
2023/01/27 06:36:03;;;;;;;4.22;1.15;;;;;;;;;;5103288;28;20392;-83
2023/01/27 06:38:29;;;;;;;5.50;1.40;;;;;;;;;;5087044;28;20384;-82
2023/01/27 06:40:55;;;;;;;4.10;1.33;;;;;;;;;;5095702;28;20376;-82
2023/01/27 06:43:21;;;;;;;3.13;0.90;;;;;;;;;;5093812;28;20024;-82
2023/01/27 06:45:51;;;;;;;2.72;0.85;;;;;;;;;;5100248;28;20035;-83
2023/01/27 06:48:17;;;;;;;6.70;1.65;;;;;;;;;;5096894;28;20027;-82
2023/01/27 06:50:43;;;;;;;2.33;1.08;;;;;;;;;;5099473;28;20024;-83
2023/01/27 06:53:09;;;;;;;2.92;1.10;;;;;;;;;;5095064;28;20480;-82
2023/01/27 06:55:40;;;;;;;3.10;1.15;;;;;;;;;;5085530;28;20424;-84
2023/01/27 06:58:07;;;;;;;3.13;0.90;;;;;;;;;;5085385;28;20047;-81
2023/01/27 07:00:33;;;;;;;9.38;2.20;;;;;;;;;;5097371;28;20073;-82
2023/01/27 07:02:59;;;;;;;6.95;1.42;;;;;;;;;;5089879;28;20052;-82
2023/01/27 07:05:25;;;;;;;6.28;3.40;;;;;;;;;;5096854;28;20035;-81
2023/01/27 07:07:51;;;;;;;22.63;11.23;;;;;;;;;;5097634;28;20110;-81
2023/01/27 07:10:17;;;;;;;10.85;4.25;;;;;;;;;;5082417;28;20032;-82
2023/01/27 07:12:43;;;;;;;3.67;1.10;;;;;;;;;;5085775;28;20393;-78
2023/01/27 07:15:10;;;;;;;6.97;1.05;;;;;;;;;;5089425;28;20413;-82
2023/01/27 07:17:36;;;;;;;4.13;1.25;;;;;;;;;;5087267;28;20046;-81
2023/01/27 07:20:03;;;;;;;2.22;1.05;;;;;;;;;;5089750;28;20421;-79
2023/01/27 07:22:29;;;;;;;2.90;1.05;;;;;;;;;;5090979;28;20031;-84
2023/01/27 07:24:55;;;;;;;4.95;1.75;;;;;;;;;;5087737;28;20175;-82
2023/01/27 07:27:22;;;;;;;7.28;1.38;;;;;;;;;;5093770;28;20132;-82
2023/01/27 07:29:48;;;;;;;5.47;1.20;;;;;;;;;;5087639;28;20039;-82
2023/01/27 07:32:14;;;;;;;8.68;0.73;;;;;;;;;;5090838;28;20028;-81
2023/01/27 07:34:40;;;;;;;2.25;0.90;;;;;;;;;;5090999;28;20082;-83
2023/01/27 07:37:06;;;;;;;3.67;1.15;;;;;;;;;;5090285;28;20036;-82
2023/01/27 07:39:32;;;;;;;3.45;0.90;;;;;;;;;;5093077;28;20032;-83
2023/01/27 07:42:00;;;;;;;5.95;1.45;;;;;;;;;;5072753;28;20122;-81
2023/01/27 07:44:26;;;;;;;8.15;2.20;;;;;;;;;;5094290;28;20167;-82
2023/01/27 07:46:52;;;;;;;6.30;1.80;;;;;;;;;;5088615;28;20028;-81
2023/01/27 07:49:19;;;;;;;3.22;1.40;;;;;;;;;;5091380;28;20051;-82
2023/01/27 07:51:45;;;;;;;6.10;3.17;;;;;;;;;;5069578;28;20114;-80
2023/01/27 07:54:11;;;;;;;9.77;2.78;;;;;;;;;;5084329;28;20039;-81
2023/01/27 07:56:37;;;;;;;14.57;7.50;;;;;;;;;;5074454;28;20367;-82
2023/01/27 07:59:04;;;;;;;3.92;1.30;;;;;;;;;;5083054;28;20423;-80
2023/01/27 08:01:30;;;;;;;4.30;0.82;;;;;;;;;;5091038;28;20094;-81
2023/01/27 08:03:56;;;;;;;3.45;0.98;;;;;;;;;;5091323;28;20484;-80
2023/01/27 08:06:22;;;;;;;6.93;1.13;;;;;;;;;;5091522;28;20039;-80
2023/01/27 08:08:48;;;;;;;2.88;0.90;;;;;;;;;;5085701;28;20036;-79
2023/01/27 08:11:15;;;;;;;6.05;0.90;;;;;;;;;;5088671;28;20027;-80
2023/01/27 08:13:41;;;;;;;2.90;0.95;;;;;;;;;;5090431;28;20111;-80
2023/01/27 08:16:10;;;;;;;3.53;1.30;;;;;;;;;;5089575;28;20036;-79
2023/01/27 08:18:36;;;;;;;6.97;1.40;;;;;;;;;;5087698;28;20101;-80
2023/01/27 08:21:06;;;;;;;2.08;1.10;;;;;;;;;;5087679;28;20032;-80
2023/01/27 08:23:33;;;;;;;6.45;1.05;;;;;;;;;;5087108;28;20073;-80
2023/01/27 08:26:00;;;;;;;1.90;0.77;;;;;;;;;;5086592;28;20021;-80
2023/01/27 08:28:28;;;;;;;6.40;0.77;;;;;;;;;;5071847;28;20101;-80
2023/01/27 08:30:54;;;;;;;5.45;0.95;;;;;;;;;;5098516;28;20048;-79
2023/01/27 08:33:21;;;;;;;4.90;0.73;;;;;;;;;;5086941;28;20074;-80
2023/01/27 08:35:48;;;;;;;5.13;0.73;;;;;;;;;;5091809;28;20024;-80
2023/01/27 08:38:15;;;;;;;4.43;1.10;;;;;;;;;;5089315;28;20024;-80
2023/01/27 08:40:42;;;;;;;1.95;0.93;;;;;;;;;;5091860;28;20389;-82
2023/01/27 08:43:08;;;;;;;3.30;0.85;;;;;;;;;;5091524;28;20020;-82
2023/01/27 08:45:35;;;;;;;6.38;1.00;;;;;;;;;;5089460;28;20412;-76
2023/01/27 08:48:01;;;;;;;16.65;7.70;;;;;;;;;;5072178;28;20057;-79
2023/01/27 08:50:31;;;;;;;10.32;4.25;;;;;;;;;;5090305;28;20035;-78
2023/01/27 08:52:58;;;;;;;6.18;1.42;;;;;;;;;;5092523;28;20028;-76
2023/01/27 08:55:27;;;;;;;5.38;1.35;;;;;;;;;;5093841;28;20024;-77
2023/01/27 08:57:54;;;;;;;5.10;0.90;;;;;;;;;;5092470;28;20221;-79
2023/01/27 09:00:20;;;;;;;4.13;0.85;;;;;;;;;;5086357;28;20382;-77
2023/01/27 09:02:46;;;;;;;3.55;0.80;;;;;;;;;;5086897;28;20118;-77
2023/01/27 09:05:13;;;;;;;10.32;1.15;;;;;;;;;;5096777;28;20063;-77
2023/01/27 09:07:39;;;;;;;6.28;1.00;;;;;;;;;;5091216;28;20035;-77
2023/01/27 09:10:06;;;;;;;6.00;0.90;;;;;;;;;;5089914;28;20032;-76
2023/01/27 09:12:32;;;;;;;4.43;1.00;;;;;;;;;;5071793;28;20058;-77
2023/01/27 09:14:58;;;;;;;7.50;1.48;;;;;;;;;;5101559;28;20032;-78
2023/01/27 09:17:25;;;;;;;8.43;1.38;;;;;;;;;;5070296;28;20503;-80
2023/01/27 09:19:51;;;;;;;7.25;1.10;;;;;;;;;;5093256;28;20547;-78
2023/01/27 09:22:17;;;;;;;5.13;1.25;;;;;;;;;;5080857;28;20035;-78
2023/01/27 09:24:43;;;;;;;5.30;1.10;;;;;;;;;;5079163;28;20114;-80
2023/01/27 09:27:09;;;;;;;8.75;2.10;;;;;;;;;;5079574;28;20028;-83
2023/01/27 09:29:35;;;;;;;9.32;3.17;;;;;;;;;;5076654;28;20024;-81
2023/01/27 09:32:01;;;;;;;11.75;3.42;;;;;;;;;;5081567;28;20473;-80
2023/01/27 09:34:27;;;;;;;5.40;1.40;;;;;;;;;;5093194;28;20059;-78
2023/01/27 09:37:06;;;;;;;6.10;1.05;;;;;;;;;;5099279;28;20035;-80
2023/01/27 09:39:35;;;;;;;2.80;0.90;;;;;;;;;;5056016;28;20025;-80
2023/01/27 09:42:16;;;;;;;2.75;0.90;;;;;;;;;;5096975;28;20566;-81
2023/01/27 09:44:42;;;;;;;6.00;1.60;;;;;;;;;;5087130;28;20224;-81
2023/01/27 09:47:23;;;;;;;4.88;0.93;;;;;;;;;;5096038;28;20032;-79
2023/01/27 09:49:55;;;;;;;13.80;4.18;;;;;;;;;;5094656;28;20031;-79
2023/01/27 09:52:24;;;;;;;3.13;0.80;;;;;;;;;;5101416;28;20028;-78
2023/01/27 09:54:59;;;;;;;9.82;1.15;;;;;;;;;;5098042;28;20116;-79
2023/01/27 09:57:48;;;;;;;5.53;1.02;;;;;;;;;;5094942;28;20032;-79
2023/01/27 10:00:29;;;;;;;3.33;1.13;;;;;;;;;;5095805;28;20046;-79
2023/01/27 10:03:01;;;;;;;41.63;5.45;;;;;;;;;;5101516;28;20028;-80
2023/01/27 10:05:39;;;;;;;200.43;19.98;;;;;;;;;;5100613;28;20601;-78
2023/01/27 10:08:15;;;;;;;5.78;1.15;;;;;;;;;;5097091;28;20058;-77
2023/01/27 10:11:01;;;;;;;4.32;1.05;;;;;;;;;;5080136;28;20043;-79
2023/01/27 10:13:27;;;;;;;3.78;1.08;;;;;;;;;;5087895;28;20032;-79
2023/01/27 10:16:19;;;;;;;3.58;0.63;;;;;;;;;;5096073;28;20034;-80
2023/01/27 10:18:48;;;;;;;4.85;0.90;;;;;;;;;;5095864;28;20144;-80
2023/01/27 10:21:32;;;;;;;5.03;1.13;;;;;;;;;;5100671;28;20027;-79
2023/01/27 10:24:07;;;;;;;8.00;1.25;;;;;;;;;;5101169;28;20031;-78
2023/01/27 10:26:41;;;;;;;4.28;1.00;;;;;;;;;;5078265;28;20023;-82
2023/01/27 10:29:09;;;;;;;3.42;1.02;;;;;;;;;;5099358;28;20024;-79
2023/01/27 10:31:36;;;;;;;2.25;0.57;;;;;;;;;;5097798;28;20059;-80
2023/01/27 10:34:09;;;;;;;6.72;1.95;;;;;;;;;;5085121;28;20027;-78
2023/01/27 10:36:35;;;;;;;5.18;2.20;;;;;;;;;;5100089;28;20031;-81
2023/01/27 10:39:01;;;;;;;8.65;2.83;;;;;;;;;;5101045;28;20393;-78
2023/01/27 10:41:43;;;;;;;3.20;1.10;;;;;;;;;;5098633;28;20028;-82
2023/01/27 10:44:18;;;;;;;7.00;0.90;;;;;;;;;;5096320;28;20046;-80
2023/01/27 10:47:03;;;;;;;7.57;1.10;;;;;;;;;;5060180;28;20139;-80
2023/01/27 10:49:48;;;;;;;3.83;1.10;;;;;;;;;;5098134;28;20035;-80
2023/01/27 10:52:30;;;;;;;1.85;0.70;;;;;;;;;;5094370;28;20019;-79
2023/01/27 10:55:02;;;;;;;0.85;0.50;;;;;;;;;;5079367;28;20514;-79
2023/01/27 10:57:35;;;;;;;1.27;0.57;;;;;;;;;;5082854;28;20036;-80
2023/01/27 11:00:01;;;;;;;3.33;0.60;;;;;;;;;;5099077;28;20073;-78
2023/01/27 11:02:53;;;;;;;0.47;0.32;;;;;;;;;;5099819;28;20036;-80
2023/01/27 11:05:26;;;;;;;1.60;0.70;;;;;;;;;;5046456;28;20048;-79
2023/01/27 11:07:57;;;;;;;0.40;0.30;;;;;;;;;;5080926;28;20044;-77
2023/01/27 11:10:25;;;;;;;2.88;0.47;;;;;;;;;;5057810;28;20028;-79
2023/01/27 11:12:53;;;;;;;3.13;0.45;;;;;;;;;;5077931;28;20023;-80
2023/01/27 11:15:30;;;;;;;2.50;0.50;;;;;;;;;;5067016;28;20542;-79
2023/01/27 11:18:03;;;;;;;5.90;3.55;;;;;;;;;;5079175;28;20036;-79
2023/01/27 11:20:29;;;;;;;10.80;5.80;;;;;;;;;;5078869;28;20009;-79
2023/01/27 11:23:05;;;;;;;2.17;0.85;;;;;;;;;;5073146;28;20063;-78
2023/01/27 11:25:41;;;;;;;0.65;0.50;;;;;;;;;;5071582;28;20036;-79
2023/01/27 11:28:36;;;;;;;1.00;0.40;;;;;;;;;;5066185;28;20104;-80
2023/01/27 11:31:20;;;;;;;0.43;0.30;;;;;;;;;;5064696;28;20497;-81
2023/01/27 11:34:19;;;;;;;0.65;0.30;;;;;;;;;;5084208;28;20024;-80
2023/01/27 11:36:45;;;;;;;1.40;0.57;;;;;;;;;;5082945;28;20119;-82
2023/01/27 11:39:14;;;;;;;0.50;0.50;;;;;;;;;;5067068;28;20036;-84
2023/01/27 11:41:42;;;;;;;0.40;0.40;;;;;;;;;;5070844;28;20031;-82
2023/01/27 11:44:16;;;;;;;1.10;0.50;;;;;;;;;;5072726;28;20487;-84
2023/01/27 11:46:43;;;;;;;1.05;0.57;;;;;;;;;;5071846;28;20039;-77
2023/01/27 11:49:09;;;;;;;12.20;5.07;;;;;;;;;;5076571;28;20024;-78
2023/01/27 11:51:38;;;;;;;0.98;0.52;;;;;;;;;;5078803;28;20063;-76
2023/01/27 11:54:07;;;;;;;0.68;0.30;;;;;;;;;;5068993;28;20036;-78
2023/01/27 11:56:35;;;;;;;1.17;0.50;;;;;;;;;;5070692;28;20037;-76
2023/01/27 11:59:01;;;;;;;0.85;0.45;;;;;;;;;;5076611;28;20394;-76
2023/01/27 12:01:43;;;;;;;0.95;0.63;;;;;;;;;;5077273;28;20086;-78
2023/01/27 12:04:12;;;;;;;1.77;0.60;;;;;;;;;;5090163;28;20075;-77
2023/01/27 12:06:47;;;;;;;0.93;0.68;;;;;;;;;;5093884;28;20457;-77
2023/01/27 12:09:31;;;;;;;4.47;1.67;;;;;;;;;;5091113;28;20024;-77
2023/01/27 12:12:10;;;;;;;3.65;1.63;;;;;;;;;;5093710;28;20023;-77
2023/01/27 12:14:36;;;;;;;1.08;0.80;;;;;;;;;;5096466;28;20533;-77
2023/01/27 12:17:03;;;;;;;3.78;1.58;;;;;;;;;;5080745;28;20024;-78
2023/01/27 12:19:31;;;;;;;0.50;0.50;;;;;;;;;;5090096;28;20040;-80
2023/01/27 12:22:02;;;;;;;3.88;2.42;;;;;;;;;;5084995;28;20032;-76
2023/01/27 12:24:31;;;;;;;7.80;4.30;;;;;;;;;;5071605;28;20090;-77
2023/01/27 12:26:57;;;;;;;4.43;2.30;;;;;;;;;;5085877;28;20450;-78
2023/01/27 12:29:28;;;;;;;1.25;0.90;;;;;;;;;;5088741;28;20537;-78
2023/01/27 12:31:56;;;;;;;0.98;0.88;;;;;;;;;;5094514;28;20034;-78
2023/01/27 12:34:44;;;;;;;2.35;0.98;;;;;;;;;;5089376;28;20028;-77
2023/01/27 12:37:19;;;;;;;3.50;0.70;;;;;;;;;;5076518;28;20024;-79
2023/01/27 12:39:49;;;;;;;2.03;0.90;;;;;;;;;;5092358;28;20017;-78
2023/01/27 12:42:35;;;;;;;2.38;1.20;;;;;;;;;;5093480;28;20354;-79
2023/01/27 12:45:16;;;;;;;1.30;1.20;;;;;;;;;;5090125;28;20035;-78
2023/01/27 12:47:54;;;;;;;1.30;1.20;;;;;;;;;;5089863;28;20079;-79
2023/01/27 12:50:21;;;;;;;2.05;1.42;;;;;;;;;;5091184;28;20028;-79
2023/01/27 12:52:54;;;;;;;5.20;1.90;;;;;;;;;;5094774;28;20052;-78
2023/01/27 12:55:20;;;;;;;;;;;;;;;;;;5089154;28;20392;-78
2023/01/27 12:57:46;;;;;;;3.08;2.20;;;;;;;;;;5091854;28;19908;-78
2023/01/27 13:00:13;;;;;;;4.85;2.67;;;;;;;;;;5083334;28;20033;-78
2023/01/27 13:02:39;;;;;;;4.60;2.63;;;;;;;;;;5103127;28;20089;-78
2023/01/27 13:05:07;;;;;;;5.85;2.85;;;;;;;;;;5089707;28;20087;-78
2023/01/27 13:07:42;;;;;;;7.68;4.78;;;;;;;;;;5091601;28;20028;-78
2023/01/27 13:10:26;;;;;;;10.70;5.22;;;;;;;;;;5087148;28;20047;-78
2023/01/27 13:12:54;;;;;;;4.50;1.92;;;;;;;;;;5090981;28;20040;-78
2023/01/27 13:15:21;;;;;;;4.97;1.73;;;;;;;;;;5089963;28;20024;-79
2023/01/27 13:17:52;;;;;;;2.40;1.90;;;;;;;;;;5089160;28;20514;-78
2023/01/27 13:20:18;;;;;;;1.80;1.70;;;;;;;;;;5091449;28;20123;-79
2023/01/27 13:22:48;;;;;;;3.30;1.98;;;;;;;;;;5090711;28;20035;-79
2023/01/27 13:25:26;;;;;;;3.63;1.73;;;;;;;;;;5092084;28;20044;-79
2023/01/27 13:27:57;;;;;;;2.83;1.92;;;;;;;;;;5089033;28;20043;-79
2023/01/27 13:30:23;;;;;;;3.35;1.80;;;;;;;;;;5089434;28;20150;-78
2023/01/27 13:32:51;;;;;;;5.28;2.00;;;;;;;;;;5086447;28;20020;-79
2023/01/27 13:35:24;;;;;;;4.18;2.30;;;;;;;;;;5089051;28;20032;-79
2023/01/27 13:38:10;;;;;;;4.40;2.00;;;;;;;;;;5090773;28;20107;-79
2023/01/27 13:40:38;;;;;;;3.25;1.88;;;;;;;;;;5089675;28;20477;-79
2023/01/27 13:43:10;;;;;;;2.22;1.90;;;;;;;;;;5086797;28;20113;-79
2023/01/27 13:45:41;;;;;;;2.88;2.20;;;;;;;;;;5074968;28;20085;-79
2023/01/27 13:48:26;;;;;;;2.35;2.15;;;;;;;;;;5088973;28;20085;-79
2023/01/27 13:51:02;;;;;;;4.28;2.10;;;;;;;;;;5090385;28;20028;-79
2023/01/27 13:53:28;;;;;;;2.13;1.92;;;;;;;;;;5071091;28;20025;-81
2023/01/27 13:56:14;;;;;;;2.65;2.40;;;;;;;;;;5069706;28;20057;-79
2023/01/27 13:58:40;;;;;;;4.07;2.30;;;;;;;;;;5085396;28;20041;-80
2023/01/27 14:01:12;;;;;;;2.95;2.40;;;;;;;;;;5090591;28;20059;-79
2023/01/27 14:03:44;;;;;;;15.13;4.65;;;;;;;;;;5089962;28;20044;-80
2023/01/27 14:06:13;;;;;;;4.00;2.75;;;;;;;;;;5099474;28;20388;-80
2023/01/27 14:08:48;;;;;;;7.20;5.28;;;;;;;;;;5083734;28;20460;-79
2023/01/27 14:11:34;;;;;;;4.40;3.78;;;;;;;;;;5074242;28;20020;-79
2023/01/27 14:14:00;;;;;;;7.07;3.13;;;;;;;;;;5086906;28;20031;-78
2023/01/27 14:16:35;;;;;;;4.72;2.97;;;;;;;;;;5076756;28;20038;-79
2023/01/27 14:19:24;;;;;;;3.47;2.78;;;;;;;;;;5085258;28;20384;-79
2023/01/27 14:22:09;;;;;;;3.33;2.60;;;;;;;;;;5085619;28;20160;-78
2023/01/27 14:24:43;;;;;;;4.07;2.30;;;;;;;;;;5093272;28;20525;-78
2023/01/27 14:27:28;;;;;;;3.58;2.58;;;;;;;;;;5091798;28;20035;-79
2023/01/27 14:29:57;;;;;;;4.55;2.55;;;;;;;;;;5081733;28;20097;-79
2023/01/27 14:32:31;;;;;;;4.10;2.00;;;;;;;;;;5088469;28;20464;-78
2023/01/27 14:35:08;;;;;;;3.42;2.50;;;;;;;;;;5079497;28;20366;-76
2023/01/27 14:37:34;;;;;;;2.03;1.80;;;;;;;;;;5073672;28;20552;-78
2023/01/27 14:40:00;;;;;;;2.95;2.30;;;;;;;;;;5074153;28;20059;-78
2023/01/27 14:42:45;;;;;;;5.75;2.67;;;;;;;;;;5084356;28;20074;-78
2023/01/27 14:45:19;;;;;;;2.72;2.45;;;;;;;;;;5087326;28;20063;-77
2023/01/27 14:47:48;;;;;;;3.03;2.28;;;;;;;;;;5098732;28;20111;-78
2023/01/27 14:50:17;;;;;;;4.45;2.40;;;;;;;;;;5097187;28;20047;-77
2023/01/27 14:52:49;;;;;;;4.47;2.85;;;;;;;;;;5095596;28;20552;-77
2023/01/27 14:55:18;;;;;;;3.60;3.30;;;;;;;;;;5092117;28;20024;-78
2023/01/27 14:57:58;;;;;;;5.47;3.63;;;;;;;;;;5091241;28;20028;-78
2023/01/27 15:00:43;;;;;;;19.48;10.63;;;;;;;;;;5091494;28;20039;-82
2023/01/27 15:03:11;;;;;;;7.13;4.53;;;;;;;;;;5093058;28;20039;-82
2023/01/27 15:05:44;;;;;;;18.95;6.55;;;;;;;;;;5084228;28;20040;-78
2023/01/27 15:08:25;;;;;;;5.32;3.92;;;;;;;;;;5071002;28;20089;-77
2023/01/27 15:11:23;;;;;;;5.30;4.27;;;;;;;;;;5063273;28;20149;-77
2023/01/27 15:13:58;;;;;;;11.88;7.35;;;;;;;;;;5082785;28;20059;-78
2023/01/27 15:16:30;;;;;;;5.22;4.25;;;;;;;;;;5075982;28;20376;-78
2023/01/27 15:19:21;;;;;;;2.95;2.75;;;;;;;;;;5077209;28;20045;-76
2023/01/27 15:22:05;;;;;;;3.45;2.83;;;;;;;;;;5056536;28;20044;-78